createdAt,value
2018-06-11T00:02:29.249Z,95949.00
2018-06-11T00:04:59.309Z,95954.00
2018-06-11T00:07:29.383Z,95947.00
2018-06-11T00:09:59.510Z,95958.00
2018-06-11T00:12:29.590Z,95955.00
2018-06-11T00:14:59.665Z,95955.00
2018-06-11T00:17:29.757Z,95955.00
2018-06-11T00:19:59.872Z,95960.00
2018-06-11T00:22:29.992Z,95960.00
2018-06-11T00:25:00.073Z,95963.00
2018-06-11T00:27:30.156Z,95961.00
2018-06-11T00:30:00.224Z,95961.00
2018-06-11T00:32:30.319Z,95955.00
2018-06-11T00:35:00.379Z,95973.00
2018-06-11T00:37:30.454Z,95973.00
2018-06-11T00:40:00.545Z,95967.00
2018-06-11T00:42:30.607Z,95971.00
2018-06-11T00:45:00.736Z,95966.00
2018-06-11T00:47:30.804Z,95976.00
2018-06-11T00:50:00.904Z,95974.00
2018-06-11T00:52:30.988Z,95974.00
2018-06-11T00:55:01.077Z,95981.00
2018-06-11T00:57:31.181Z,95983.00
2018-06-11T01:00:01.333Z,95984.00
2018-06-11T01:02:31.439Z,95984.00
2018-06-11T01:05:01.521Z,95981.00
2018-06-11T01:07:31.597Z,95985.00
2018-06-11T01:10:01.684Z,95986.00
2018-06-11T01:12:31.757Z,95990.00
2018-06-11T01:15:01.851Z,95980.00
2018-06-11T01:17:31.916Z,95973.00
2018-06-11T01:20:02.148Z,95970.00
2018-06-11T01:22:32.225Z,95972.00
2018-06-11T01:25:02.295Z,95971.00
2018-06-11T01:27:32.412Z,95983.00
2018-06-11T01:30:02.477Z,95981.00
2018-06-11T01:32:32.548Z,95979.00
2018-06-11T01:35:02.616Z,95972.00
2018-06-11T01:37:32.716Z,95963.00
2018-06-11T01:40:02.817Z,95954.00
2018-06-11T01:42:33.130Z,95955.00
2018-06-11T01:45:03.227Z,95957.00
2018-06-11T01:47:33.324Z,95955.00
2018-06-11T01:50:03.429Z,95957.00
2018-06-11T01:52:33.585Z,95963.00
2018-06-11T01:55:03.673Z,95953.00
2018-06-11T01:57:33.863Z,95955.00
2018-06-11T02:00:04.048Z,95954.00
2018-06-11T02:02:34.232Z,95950.00
2018-06-11T02:05:04.380Z,95948.00
2018-06-11T02:10:03.640Z,95953.00
2018-06-11T02:12:33.704Z,95943.00
2018-06-11T02:15:03.860Z,95942.00
2018-06-11T02:17:33.932Z,95939.00
2018-06-11T02:20:04.077Z,95941.00
2018-06-11T02:22:34.139Z,95942.00
2018-06-11T02:25:04.245Z,95943.00
2018-06-11T02:27:34.328Z,95947.00
2018-06-11T02:30:04.908Z,95940.00
2018-06-11T02:32:35.020Z,95941.00
2018-06-11T02:35:05.220Z,95954.00
2018-06-11T02:37:35.388Z,95952.00
2018-06-11T02:40:05.563Z,95944.00
2018-06-11T02:42:35.653Z,95946.00
2018-06-11T02:45:06.134Z,95935.00
2018-06-11T02:47:36.204Z,95933.00
2018-06-11T02:50:06.806Z,95926.00
2018-06-11T02:52:36.880Z,95931.00
2018-06-11T02:55:07.215Z,95939.00
2018-06-11T02:57:37.287Z,95938.00
2018-06-11T03:00:07.432Z,95936.00
2018-06-11T03:02:37.511Z,95934.00
2018-06-11T03:05:07.645Z,95939.00
2018-06-11T03:07:37.719Z,95935.00
2018-06-11T03:10:07.791Z,95931.00
2018-06-11T03:12:37.895Z,95942.00
2018-06-11T03:15:07.996Z,95948.00
2018-06-11T03:17:38.069Z,95941.00
2018-06-11T03:20:08.217Z,95946.00
2018-06-11T03:22:38.303Z,95937.00
2018-06-11T03:25:08.398Z,95935.00
2018-06-11T03:27:38.478Z,95946.00
2018-06-11T03:30:08.568Z,95944.00
2018-06-11T03:32:38.636Z,95944.00
2018-06-11T03:35:08.736Z,95943.00
2018-06-11T03:37:38.829Z,95953.00
2018-06-11T03:40:09.225Z,95947.00
2018-06-11T03:42:39.377Z,95939.00
2018-06-11T03:45:09.449Z,95942.00
2018-06-11T03:47:39.556Z,95945.00
2018-06-11T03:50:09.343Z,95939.00
2018-06-11T03:52:39.377Z,95944.00
2018-06-11T03:55:09.423Z,95939.00
2018-06-11T03:57:39.498Z,95947.00
2018-06-11T04:00:09.600Z,95942.00
2018-06-11T04:02:39.689Z,95944.00
2018-06-11T04:05:09.811Z,95949.00
2018-06-11T04:07:39.976Z,95950.00
2018-06-11T04:10:10.076Z,95948.00
2018-06-11T04:12:40.207Z,95955.00
2018-06-11T04:15:10.286Z,95953.00
2018-06-11T04:17:40.436Z,95956.00
2018-06-11T04:20:10.547Z,95958.00
2018-06-11T04:22:40.588Z,95961.00
2018-06-11T04:25:10.693Z,95955.00
2018-06-11T04:27:40.776Z,95964.00
2018-06-11T04:30:10.880Z,95958.00
2018-06-11T04:32:41.015Z,95964.00
2018-06-11T04:35:11.116Z,95965.00
2018-06-11T04:37:41.193Z,95959.00
2018-06-11T04:40:11.271Z,95965.00
2018-06-11T04:42:41.372Z,95972.00
2018-06-11T04:45:11.457Z,95978.00
2018-06-11T04:47:41.564Z,95977.00
2018-06-11T04:50:11.661Z,95988.00
2018-06-11T04:52:41.824Z,95994.00
2018-06-11T04:55:11.893Z,95997.00
2018-06-11T04:57:41.983Z,95997.00
2018-06-11T05:00:12.072Z,95996.00
2018-06-11T05:02:42.136Z,96001.00
2018-06-11T05:05:12.221Z,96001.00
2018-06-11T05:07:42.386Z,96008.00
2018-06-11T05:10:12.495Z,96012.00
2018-06-11T05:12:42.608Z,96018.00
2018-06-11T05:15:12.697Z,96021.00
2018-06-11T05:17:42.792Z,96022.00
2018-06-11T05:20:12.892Z,96026.00
2018-06-11T05:22:42.949Z,96024.00
2018-06-11T05:25:13.039Z,96020.00
2018-06-11T05:27:43.125Z,96024.00
2018-06-11T05:30:13.200Z,96025.00
2018-06-11T05:32:43.318Z,96020.00
2018-06-11T05:35:13.421Z,96029.00
2018-06-11T05:37:43.579Z,96033.00
2018-06-11T05:40:13.665Z,96035.00
2018-06-11T05:42:43.760Z,96041.00
2018-06-11T05:45:13.920Z,96047.00
2018-06-11T05:47:44.002Z,96034.00
2018-06-11T05:50:13.810Z,96033.00
2018-06-11T05:52:43.796Z,96041.00
2018-06-11T05:55:13.909Z,96046.00
2018-06-11T05:57:43.985Z,96046.00
2018-06-11T06:00:14.120Z,96050.00
2018-06-11T06:02:44.220Z,96042.00
2018-06-11T06:05:14.296Z,96049.00
2018-06-11T06:07:44.348Z,96040.00
2018-06-11T06:10:14.516Z,96038.00
2018-06-11T06:12:44.605Z,96045.00
2018-06-11T06:15:14.713Z,96052.00
2018-06-11T06:17:44.778Z,96053.00
2018-06-11T06:20:14.868Z,96050.00
2018-06-11T06:22:44.956Z,96055.00
2018-06-11T06:25:15.061Z,96053.00
2018-06-11T06:27:45.180Z,96055.00
2018-06-11T06:30:15.248Z,96061.00
2018-06-11T06:32:45.372Z,96060.00
2018-06-11T06:35:15.476Z,96050.00
2018-06-11T06:37:45.561Z,96050.00
2018-06-11T06:40:15.663Z,96056.00
2018-06-11T06:42:45.828Z,96063.00
2018-06-11T06:45:15.953Z,96061.00
2018-06-11T06:47:46.041Z,96052.00
2018-06-11T06:50:16.148Z,96056.00
2018-06-11T06:52:46.254Z,96048.00
2018-06-11T06:55:16.356Z,96046.00
2018-06-11T06:57:46.432Z,96060.00
2018-06-11T07:00:16.512Z,96061.00
2018-06-11T07:02:46.592Z,96042.00
2018-06-11T07:05:16.664Z,96043.00
2018-06-11T07:07:46.740Z,96044.00
2018-06-11T07:10:16.832Z,96043.00
2018-06-11T07:12:46.919Z,96043.00
2018-06-11T07:15:16.977Z,96040.00
2018-06-11T07:17:47.056Z,96042.00
2018-06-11T07:20:17.214Z,96039.00
2018-06-11T07:22:47.288Z,96033.00
2018-06-11T07:25:17.364Z,96035.00
2018-06-11T07:27:47.454Z,96024.00
2018-06-11T07:30:20.536Z,96020.00
2018-06-11T07:32:50.619Z,96024.00
2018-06-11T07:35:20.704Z,96016.00
2018-06-11T07:37:50.816Z,96019.00
2018-06-11T07:40:20.888Z,96029.00
2018-06-11T07:42:51.094Z,96026.00
2018-06-11T07:45:21.197Z,96023.00
2018-06-11T07:47:51.276Z,96025.00
2018-06-11T07:50:21.392Z,96026.00
2018-06-11T07:52:51.557Z,96025.00
2018-06-11T07:55:21.684Z,96019.00
2018-06-11T07:57:51.815Z,96019.00
2018-06-11T08:00:21.890Z,96010.00
2018-06-11T08:02:52.229Z,96014.00
2018-06-11T08:05:22.333Z,96012.00
2018-06-11T08:07:52.427Z,96011.00
2018-06-11T08:10:22.202Z,96014.00
2018-06-11T08:12:52.196Z,96007.00
2018-06-11T08:15:22.289Z,96010.00
2018-06-11T08:17:52.384Z,96017.00
2018-06-11T08:20:22.467Z,96019.00
2018-06-11T08:22:52.564Z,96015.00
2018-06-11T08:25:22.703Z,96007.00
2018-06-11T08:27:52.470Z,96009.00
2018-06-11T08:30:22.461Z,96007.00
2018-06-11T08:32:52.536Z,96016.00
2018-06-11T08:35:22.624Z,96015.00
2018-06-11T08:37:52.856Z,96011.00
2018-06-11T08:40:23.000Z,96012.00
2018-06-11T08:42:53.080Z,96016.00
2018-06-11T08:45:23.171Z,96014.00
2018-06-11T08:47:53.244Z,96019.00
2018-06-11T08:50:23.388Z,96019.00
2018-06-11T08:52:53.463Z,96013.00
2018-06-11T08:55:23.564Z,96024.00
2018-06-11T08:57:53.672Z,96020.00
2018-06-11T09:00:23.459Z,96020.00
2018-06-11T09:02:53.468Z,96023.00
2018-06-11T09:05:23.552Z,96024.00
2018-06-11T09:07:53.619Z,96021.00
2018-06-11T09:10:23.697Z,96020.00
2018-06-11T09:12:53.761Z,96025.00
2018-06-11T09:15:23.888Z,96029.00
2018-06-11T09:17:54.021Z,96028.00
2018-06-11T09:20:24.377Z,96027.00
2018-06-11T09:22:54.553Z,96039.00
2018-06-11T09:25:24.618Z,96032.00
2018-06-11T09:27:54.714Z,96028.00
2018-06-11T09:30:24.801Z,96034.00
2018-06-11T09:32:54.584Z,96036.00
2018-06-11T09:35:24.434Z,96037.00
2018-06-11T09:37:54.472Z,96037.00
2018-06-11T09:40:24.556Z,96034.00
2018-06-11T09:42:54.654Z,96037.00
2018-06-11T09:45:24.761Z,96039.00
2018-06-11T09:47:55.017Z,96025.00
2018-06-11T09:50:25.096Z,96033.00
2018-06-11T09:52:55.198Z,96037.00
2018-06-11T09:55:25.324Z,96032.00
2018-06-11T09:57:55.489Z,96024.00
2018-06-11T10:00:32.765Z,96026.00
2018-06-11T10:03:02.856Z,96024.00
2018-06-11T10:05:33.283Z,96021.00
2018-06-11T10:08:03.396Z,96023.00
2018-06-11T10:10:33.520Z,96020.00
2018-06-11T10:13:03.791Z,96037.00
2018-06-11T10:15:33.881Z,96040.00
2018-06-11T10:18:04.032Z,96036.00
2018-06-11T10:20:34.135Z,96035.00
2018-06-11T10:23:04.305Z,96039.00
2018-06-11T10:25:34.400Z,96036.00
2018-06-11T10:28:04.516Z,96038.00
2018-06-11T10:30:34.616Z,96041.00
2018-06-11T10:33:04.696Z,96046.00
2018-06-11T10:35:34.784Z,96035.00
2018-06-11T10:38:04.855Z,96026.00
2018-06-11T10:40:34.960Z,96023.00
2018-06-11T10:43:05.206Z,96028.00
2018-06-11T10:45:35.292Z,96024.00
2018-06-11T10:48:05.679Z,96023.00
2018-06-11T10:50:35.768Z,96023.00
2018-06-11T10:53:05.883Z,96015.00
2018-06-11T10:55:35.963Z,96015.00
2018-06-11T10:58:06.157Z,96015.00
2018-06-11T11:00:36.233Z,96013.00
2018-06-11T11:03:06.319Z,96008.00
2018-06-11T11:05:36.428Z,96009.00
2018-06-11T11:08:06.638Z,96001.00
2018-06-11T11:10:36.705Z,96011.00
2018-06-11T11:13:06.830Z,96004.00
2018-06-11T11:15:36.867Z,95999.00
2018-06-11T11:18:06.972Z,96005.00
2018-06-11T11:20:37.039Z,95989.00
2018-06-11T11:23:07.439Z,95986.00
2018-06-11T11:25:37.501Z,95980.00
2018-06-11T11:28:07.643Z,95975.00
2018-06-11T11:30:37.728Z,95971.00
2018-06-11T11:33:07.849Z,95975.00
2018-06-11T11:35:37.946Z,95966.00
2018-06-11T11:38:08.104Z,95957.00
2018-06-11T11:40:38.196Z,95953.00
2018-06-11T11:43:08.280Z,95965.00
2018-06-11T11:45:38.367Z,95961.00
2018-06-11T11:48:08.463Z,95947.00
2018-06-11T11:50:38.647Z,95950.00
2018-06-11T11:53:08.688Z,95942.00
2018-06-11T11:55:38.791Z,95939.00
2018-06-11T11:58:08.928Z,95944.00
2018-06-11T12:00:39.020Z,95933.00
2018-06-11T12:03:09.101Z,95927.00
2018-06-11T12:05:39.248Z,95926.00
2018-06-11T12:08:09.321Z,95919.00
2018-06-11T12:10:39.492Z,95927.00
2018-06-11T12:13:10.035Z,95922.00
2018-06-11T12:15:40.111Z,95917.00
2018-06-11T12:18:10.286Z,95921.00
2018-06-11T12:20:40.353Z,95916.00
2018-06-11T12:23:10.451Z,95910.00
2018-06-11T12:25:40.689Z,95922.00
2018-06-11T12:28:11.224Z,95930.00
2018-06-11T12:30:41.316Z,95917.00
2018-06-11T12:33:11.406Z,95914.00
2018-06-11T12:35:41.459Z,95918.00
2018-06-11T12:38:11.566Z,95903.00
2018-06-11T12:40:45.404Z,95902.00
2018-06-11T12:43:15.504Z,95898.00
2018-06-11T12:45:45.632Z,95900.00
2018-06-11T12:48:15.739Z,95901.00
2018-06-11T12:50:52.701Z,95898.00
2018-06-11T12:53:22.776Z,95898.00
2018-06-11T12:55:52.852Z,95883.00
2018-06-11T12:58:22.990Z,95883.00
2018-06-11T13:00:53.096Z,95880.00
2018-06-11T13:03:23.187Z,95877.00
2018-06-11T13:05:53.260Z,95874.00
2018-06-11T13:08:23.475Z,95882.00
2018-06-11T13:10:53.461Z,95871.00
2018-06-11T13:13:23.556Z,95858.00
2018-06-11T13:15:53.636Z,95858.00
2018-06-11T13:18:23.721Z,95859.00
2018-06-11T13:20:53.924Z,95857.00
2018-06-11T13:23:24.001Z,95850.00
2018-06-11T13:25:54.117Z,95853.00
2018-06-11T13:28:24.248Z,95843.00
2018-06-11T13:30:54.358Z,95829.00
2018-06-11T13:33:24.456Z,95831.00
2018-06-11T13:35:54.631Z,95829.00
2018-06-11T13:38:24.688Z,95835.00
2018-06-11T13:40:54.763Z,95833.00
2018-06-11T13:43:24.857Z,95842.00
2018-06-11T13:45:55.030Z,95846.00
2018-06-11T13:48:25.165Z,95842.00
2018-06-11T13:50:55.261Z,95830.00
2018-06-11T13:53:25.347Z,95842.00
2018-06-11T13:55:55.457Z,95845.00
2018-06-11T13:58:25.558Z,95845.00
2018-06-11T14:00:55.676Z,95841.00
2018-06-11T14:03:25.748Z,95838.00
2018-06-11T14:05:55.845Z,95845.00
2018-06-11T14:08:25.952Z,95836.00
2018-06-11T14:10:56.063Z,95838.00
2018-06-11T14:13:26.143Z,95833.00
2018-06-11T14:15:56.220Z,95830.00
2018-06-11T14:18:26.339Z,95827.00
2018-06-11T14:20:56.437Z,95831.00
2018-06-11T14:23:26.618Z,95823.00
2018-06-11T14:25:56.704Z,95815.00
2018-06-11T14:28:26.813Z,95824.00
2018-06-11T14:30:56.940Z,95817.00
2018-06-11T14:33:27.025Z,95812.00
2018-06-11T14:35:57.148Z,95816.00
2018-06-11T14:38:27.260Z,95811.00
2018-06-11T14:40:57.388Z,95806.00
2018-06-11T14:43:27.540Z,95802.00
2018-06-11T14:45:57.749Z,95803.00
2018-06-11T14:48:27.817Z,95806.00
2018-06-11T14:50:58.012Z,95788.00
2018-06-11T14:53:28.106Z,95798.00
2018-06-11T14:55:58.335Z,95790.00
2018-06-11T14:58:28.500Z,95782.00
2018-06-11T15:00:58.606Z,95782.00
2018-06-11T15:03:28.362Z,95784.00
2018-06-11T15:05:58.414Z,95783.00
2018-06-11T15:08:28.492Z,95772.00
2018-06-11T15:10:58.261Z,95765.00
2018-06-11T15:13:28.256Z,95762.00
2018-06-11T15:15:58.116Z,95766.00
2018-06-11T15:18:28.143Z,95759.00
2018-06-11T15:20:58.256Z,95764.00
2018-06-11T15:23:28.394Z,95754.00
2018-06-11T15:26:01.403Z,95747.00
2018-06-11T15:28:31.594Z,95740.00
2018-06-11T15:31:01.689Z,95732.00
2018-06-11T15:33:31.773Z,95715.00
2018-06-11T15:36:01.856Z,95729.00
2018-06-11T15:38:32.082Z,95717.00
2018-06-11T15:41:02.146Z,95722.00
2018-06-11T15:43:32.244Z,95726.00
2018-06-11T15:46:02.355Z,95725.00
2018-06-11T15:48:32.449Z,95715.00
2018-06-11T15:51:03.114Z,95725.00
2018-06-11T15:53:33.888Z,95720.00
2018-06-11T15:56:03.992Z,95707.00
2018-06-11T15:58:34.089Z,95717.00
2018-06-11T16:01:04.179Z,95709.00
2018-06-11T16:03:34.320Z,95707.00
2018-06-11T16:06:04.400Z,95714.00
2018-06-11T16:08:34.478Z,95720.00
2018-06-11T16:11:04.893Z,95726.00
2018-06-11T16:13:34.961Z,95717.00
2018-06-11T16:16:05.372Z,95715.00
2018-06-11T16:18:35.559Z,95708.00
2018-06-11T16:21:05.610Z,95705.00
2018-06-11T16:23:35.718Z,95706.00
2018-06-11T16:26:05.808Z,95718.00
2018-06-11T16:28:35.907Z,95715.00
2018-06-11T16:31:06.025Z,95723.00
2018-06-11T16:33:36.112Z,95721.00
2018-06-11T16:36:06.285Z,95714.00
2018-06-11T16:38:36.376Z,95706.00
2018-06-11T16:41:06.516Z,95700.00
2018-06-11T16:43:36.603Z,95706.00
2018-06-11T16:46:06.801Z,95703.00
2018-06-11T16:48:36.875Z,95697.00
2018-06-11T16:51:07.629Z,95688.00
2018-06-11T16:53:37.690Z,95694.00
2018-06-11T16:56:07.838Z,95701.00
2018-06-11T16:58:37.901Z,95695.00
2018-06-11T17:01:08.076Z,95693.00
2018-06-11T17:03:38.272Z,95699.00
2018-06-11T17:06:08.432Z,95700.00
2018-06-11T17:08:38.567Z,95720.00
2018-06-11T17:11:08.684Z,95704.00
2018-06-11T17:13:38.789Z,95705.00
2018-06-11T17:16:08.835Z,95708.00
2018-06-11T17:18:38.952Z,95707.00
2018-06-11T17:21:09.024Z,95705.00
2018-06-11T17:23:39.107Z,95704.00
2018-06-11T17:26:09.188Z,95711.00
2018-06-11T17:28:39.392Z,95709.00
2018-06-11T17:31:09.463Z,95702.00
2018-06-11T17:33:39.608Z,95705.00
2018-06-11T17:36:09.684Z,95700.00
2018-06-11T17:38:39.865Z,95696.00
2018-06-11T17:41:09.941Z,95700.00
2018-06-11T17:43:40.016Z,95698.00
2018-06-11T17:46:10.106Z,95697.00
2018-06-11T17:48:40.198Z,95709.00
2018-06-11T17:51:10.297Z,95706.00
2018-06-11T17:53:40.397Z,95696.00
2018-06-11T17:56:10.464Z,95705.00
2018-06-11T17:58:40.552Z,95701.00
2018-06-11T18:01:10.713Z,95700.00
2018-06-11T18:03:40.765Z,95706.00
2018-06-11T18:06:10.962Z,95723.00
2018-06-11T18:08:42.020Z,95740.00
2018-06-11T18:11:12.160Z,95738.00
2018-06-11T18:13:42.309Z,95749.00
2018-06-11T18:16:12.449Z,95743.00
2018-06-11T18:18:43.553Z,95749.00
2018-06-11T18:21:13.709Z,95744.00
2018-06-11T18:23:43.772Z,95743.00
2018-06-11T18:26:13.969Z,95753.00
2018-06-11T18:28:44.062Z,95740.00
2018-06-11T18:31:14.171Z,95747.00
2018-06-11T18:33:44.263Z,95753.00
2018-06-11T18:36:14.629Z,95757.00
2018-06-11T18:38:44.864Z,95749.00
2018-06-11T18:41:14.974Z,95752.00
2018-06-11T18:43:44.738Z,95753.00
2018-06-11T18:46:14.860Z,95753.00
2018-06-11T18:48:44.948Z,95770.00
2018-06-11T18:51:15.128Z,95755.00
2018-06-11T18:53:45.240Z,95749.00
2018-06-11T18:56:15.341Z,95754.00
2018-06-11T18:58:45.555Z,95746.00
2018-06-11T19:01:15.640Z,95751.00
2018-06-11T19:03:45.741Z,95748.00
2018-06-11T19:06:15.812Z,95748.00
2018-06-11T19:08:45.923Z,95751.00
2018-06-11T19:11:16.052Z,95751.00
2018-06-11T19:13:46.189Z,95756.00
2018-06-11T19:16:16.291Z,95755.00
2018-06-11T19:18:46.456Z,95752.00
2018-06-11T19:21:16.714Z,95746.00
2018-06-11T19:23:46.984Z,95762.00
2018-06-11T19:26:17.120Z,95761.00
2018-06-11T19:28:47.284Z,95760.00
2018-06-11T19:31:17.424Z,95770.00
2018-06-11T19:33:47.715Z,95773.00
2018-06-11T19:36:17.865Z,95767.00
2018-06-11T19:38:48.280Z,95772.00
2018-06-11T19:41:18.746Z,95765.00
2018-06-11T19:43:49.072Z,95769.00
2018-06-11T19:46:19.477Z,95779.00
2018-06-11T19:48:49.688Z,95777.00
2018-06-11T19:51:19.777Z,95763.00
2018-06-11T19:53:49.895Z,95759.00
2018-06-11T19:56:20.541Z,95734.00
2018-06-11T19:58:50.598Z,95718.00
2018-06-11T20:01:20.732Z,95703.00
2018-06-11T20:03:51.052Z,95696.00
2018-06-11T20:06:21.128Z,95689.00
2018-06-11T20:08:50.905Z,95676.00
2018-06-11T20:11:20.920Z,95666.00
2018-06-11T20:13:51.582Z,95661.00
2018-06-11T20:16:21.832Z,95664.00
2018-06-11T20:18:51.934Z,95663.00
2018-06-11T20:21:22.005Z,95668.00
2018-06-11T20:23:52.471Z,95661.00
2018-06-11T20:26:22.546Z,95669.00
2018-06-11T20:28:52.653Z,95661.00
2018-06-11T20:31:22.996Z,95666.00
2018-06-11T20:33:53.079Z,95664.00
2018-06-11T20:36:23.218Z,95666.00
2018-06-11T20:38:53.396Z,95658.00
2018-06-11T20:41:23.881Z,95653.00
2018-06-11T20:43:53.971Z,95654.00
2018-06-11T20:46:24.116Z,95660.00
2018-06-11T20:48:53.919Z,95656.00
2018-06-11T20:51:23.940Z,95647.00
2018-06-11T20:53:54.036Z,95653.00
2018-06-11T20:56:24.111Z,95655.00
2018-06-11T20:58:54.387Z,95653.00
2018-06-11T21:01:24.556Z,95657.00
2018-06-11T21:03:54.627Z,95654.00
2018-06-11T21:06:24.896Z,95649.00
2018-06-11T21:08:54.969Z,95646.00
2018-06-11T21:11:25.103Z,95643.00
2018-06-11T21:13:55.360Z,95646.00
2018-06-11T21:16:25.489Z,95639.00
2018-06-11T21:18:55.558Z,95638.00
2018-06-11T21:21:25.622Z,95633.00
2018-06-11T21:23:55.816Z,95627.00
2018-06-11T21:26:25.920Z,95627.00
2018-06-11T21:28:55.976Z,95632.00
2018-06-11T21:31:26.068Z,95624.00
2018-06-11T21:33:56.152Z,95641.00
2018-06-11T21:36:26.235Z,95633.00
2018-06-11T21:38:56.303Z,95629.00
2018-06-11T21:41:26.372Z,95624.00
2018-06-11T21:43:56.460Z,95625.00
2018-06-11T21:46:26.529Z,95628.00
2018-06-11T21:48:56.612Z,95619.00
2018-06-11T21:51:26.727Z,95635.00
2018-06-11T21:53:56.808Z,95625.00
2018-06-11T21:56:26.912Z,95625.00
2018-06-11T21:58:57.105Z,95625.00
2018-06-11T22:01:27.224Z,95614.00
2018-06-11T22:03:57.482Z,95603.00
2018-06-11T22:06:27.461Z,95605.00
2018-06-11T22:08:57.538Z,95604.00
2018-06-11T22:11:27.696Z,95603.00
2018-06-11T22:13:57.796Z,95614.00
2018-06-11T22:16:27.892Z,95612.00
2018-06-11T22:18:57.960Z,95603.00
2018-06-11T22:21:28.061Z,95608.00
2018-06-11T22:23:58.160Z,95601.00
2018-06-11T22:26:28.244Z,95602.00
2018-06-11T22:28:58.359Z,95599.00
2018-06-11T22:31:28.439Z,95589.00
2018-06-11T22:33:58.540Z,95596.00
2018-06-11T22:36:28.648Z,95593.00
2018-06-11T22:38:58.801Z,95588.00
2018-06-11T22:41:28.914Z,95587.00
2018-06-11T22:43:58.968Z,95592.00
2018-06-11T22:46:29.064Z,95590.00
2018-06-11T22:48:58.869Z,95586.00
2018-06-11T22:51:28.860Z,95591.00
2018-06-11T22:53:58.632Z,95579.00
2018-06-11T22:56:28.616Z,95581.00
2018-06-11T22:58:58.718Z,95578.00
2018-06-11T23:01:28.826Z,95571.00
2018-06-11T23:03:58.904Z,95572.00
2018-06-11T23:06:29.005Z,95576.00
2018-06-11T23:08:59.105Z,95568.00
2018-06-11T23:11:29.164Z,95556.00
2018-06-11T23:13:59.359Z,95556.00
2018-06-11T23:16:29.488Z,95554.00
2018-06-11T23:18:59.641Z,95565.00
2018-06-11T23:21:29.704Z,95568.00
2018-06-11T23:23:59.890Z,95557.00
2018-06-11T23:26:29.900Z,95554.00
2018-06-11T23:28:59.992Z,95561.00
2018-06-11T23:31:30.080Z,95560.00
2018-06-11T23:34:00.138Z,95556.00
2018-06-11T23:36:30.236Z,95533.00
2018-06-11T23:39:00.315Z,95539.00
2018-06-11T23:41:30.410Z,95526.00
2018-06-11T23:44:00.468Z,95531.00
2018-06-11T23:46:30.540Z,95522.00
2018-06-11T23:49:00.632Z,95514.00
2018-06-11T23:51:31.020Z,95514.00
2018-06-11T23:54:01.083Z,95501.00
2018-06-11T23:56:31.180Z,95507.00
2018-06-11T23:59:01.292Z,95505.00
